sensor_id;sensor_type;location;lat;lon;timestamp;temperature;humidity
15483;DHT22;7843;50.330;7.312;2023-08-06T00:01:25;14.90;99.90
15483;DHT22;7843;50.330;7.312;2023-08-06T00:03:52;14.90;99.90
15483;DHT22;7843;50.330;7.312;2023-08-06T00:06:18;14.80;99.90
15483;DHT22;7843;50.330;7.312;2023-08-06T00:08:45;14.80;99.90
15483;DHT22;7843;50.330;7.312;2023-08-06T00:11:12;14.80;99.90
15483;DHT22;7843;50.330;7.312;2023-08-06T00:13:40;14.80;99.90
15483;DHT22;7843;50.330;7.312;2023-08-06T00:16:13;14.70;99.90
15483;DHT22;7843;50.330;7.312;2023-08-06T00:18:40;14.70;99.90
15483;DHT22;7843;50.330;7.312;2023-08-06T00:21:08;14.70;99.90
15483;DHT22;7843;50.330;7.312;2023-08-06T00:23:34;14.70;99.90
15483;DHT22;7843;50.330;7.312;2023-08-06T00:26:01;14.70;99.90
15483;DHT22;7843;50.330;7.312;2023-08-06T00:28:28;14.70;99.90
15483;DHT22;7843;50.330;7.312;2023-08-06T00:30:55;14.70;99.90
15483;DHT22;7843;50.330;7.312;2023-08-06T00:33:23;14.70;99.90
15483;DHT22;7843;50.330;7.312;2023-08-06T00:35:50;14.70;99.90
15483;DHT22;7843;50.330;7.312;2023-08-06T00:38:17;14.70;99.90
15483;DHT22;7843;50.330;7.312;2023-08-06T00:40:44;14.80;99.90
15483;DHT22;7843;50.330;7.312;2023-08-06T00:43:10;14.80;99.90
15483;DHT22;7843;50.330;7.312;2023-08-06T00:45:37;14.80;99.90
15483;DHT22;7843;50.330;7.312;2023-08-06T00:48:05;14.90;99.90
15483;DHT22;7843;50.330;7.312;2023-08-06T00:50:33;14.80;99.90
15483;DHT22;7843;50.330;7.312;2023-08-06T00:53:01;14.90;99.90
15483;DHT22;7843;50.330;7.312;2023-08-06T00:55:28;14.90;99.90
15483;DHT22;7843;50.330;7.312;2023-08-06T00:57:55;14.90;99.90
15483;DHT22;7843;50.330;7.312;2023-08-06T01:00:26;14.90;99.90
15483;DHT22;7843;50.330;7.312;2023-08-06T01:02:53;14.90;99.90
15483;DHT22;7843;50.330;7.312;2023-08-06T01:05:21;14.90;99.90
15483;DHT22;7843;50.330;7.312;2023-08-06T01:10:33;14.70;99.90
15483;DHT22;7843;50.330;7.312;2023-08-06T01:15:47;14.60;99.90
15483;DHT22;7843;50.330;7.312;2023-08-06T01:18:16;14.60;99.90
15483;DHT22;7843;50.330;7.312;2023-08-06T01:20:42;14.50;99.90
15483;DHT22;7843;50.330;7.312;2023-08-06T01:23:09;14.40;99.90
15483;DHT22;7843;50.330;7.312;2023-08-06T01:29:08;14.20;99.90
15483;DHT22;7843;50.330;7.312;2023-08-06T01:31:36;14.20;99.90
15483;DHT22;7843;50.330;7.312;2023-08-06T01:34:06;14.20;99.90
15483;DHT22;7843;50.330;7.312;2023-08-06T01:36:34;14.20;99.90
15483;DHT22;7843;50.330;7.312;2023-08-06T01:39:01;14.20;99.90
15483;DHT22;7843;50.330;7.312;2023-08-06T01:41:27;14.20;99.90
15483;DHT22;7843;50.330;7.312;2023-08-06T01:43:54;14.30;99.90
15483;DHT22;7843;50.330;7.312;2023-08-06T01:46:21;14.30;99.90
15483;DHT22;7843;50.330;7.312;2023-08-06T01:48:47;14.30;99.90
15483;DHT22;7843;50.330;7.312;2023-08-06T01:51:14;14.30;99.90
15483;DHT22;7843;50.330;7.312;2023-08-06T01:53:41;14.40;99.90
15483;DHT22;7843;50.330;7.312;2023-08-06T01:56:07;14.40;99.90
15483;DHT22;7843;50.330;7.312;2023-08-06T01:58:34;14.40;99.90
15483;DHT22;7843;50.330;7.312;2023-08-06T02:01:02;14.40;99.90
15483;DHT22;7843;50.330;7.312;2023-08-06T02:03:28;14.40;99.90
15483;DHT22;7843;50.330;7.312;2023-08-06T02:05:56;14.40;99.90
15483;DHT22;7843;50.330;7.312;2023-08-06T02:08:22;14.30;99.90
15483;DHT22;7843;50.330;7.312;2023-08-06T02:10:49;14.30;99.90
15483;DHT22;7843;50.330;7.312;2023-08-06T02:13:16;14.30;99.90
15483;DHT22;7843;50.330;7.312;2023-08-06T02:15:43;14.30;99.90
15483;DHT22;7843;50.330;7.312;2023-08-06T02:18:10;14.40;99.90
15483;DHT22;7843;50.330;7.312;2023-08-06T02:20:37;14.40;99.90
15483;DHT22;7843;50.330;7.312;2023-08-06T02:23:04;14.40;99.90
15483;DHT22;7843;50.330;7.312;2023-08-06T02:25:31;14.50;99.90
15483;DHT22;7843;50.330;7.312;2023-08-06T02:27:57;14.50;99.90
15483;DHT22;7843;50.330;7.312;2023-08-06T02:30:24;14.50;99.90
15483;DHT22;7843;50.330;7.312;2023-08-06T02:32:51;14.60;99.90
15483;DHT22;7843;50.330;7.312;2023-08-06T02:35:18;14.60;99.90
15483;DHT22;7843;50.330;7.312;2023-08-06T02:37:45;14.50;99.90
15483;DHT22;7843;50.330;7.312;2023-08-06T02:40:11;14.60;99.90
15483;DHT22;7843;50.330;7.312;2023-08-06T02:42:38;14.60;99.90
15483;DHT22;7843;50.330;7.312;2023-08-06T02:45:05;14.60;99.90
15483;DHT22;7843;50.330;7.312;2023-08-06T02:47:32;14.60;99.90
15483;DHT22;7843;50.330;7.312;2023-08-06T02:49:59;14.60;99.90
15483;DHT22;7843;50.330;7.312;2023-08-06T02:52:25;14.60;99.90
15483;DHT22;7843;50.330;7.312;2023-08-06T02:54:52;14.60;99.90
15483;DHT22;7843;50.330;7.312;2023-08-06T02:57:19;14.60;99.90
15483;DHT22;7843;50.330;7.312;2023-08-06T02:59:46;14.60;99.90
15483;DHT22;7843;50.330;7.312;2023-08-06T03:02:12;14.60;99.90
15483;DHT22;7843;50.330;7.312;2023-08-06T03:04:39;14.60;99.90
15483;DHT22;7843;50.330;7.312;2023-08-06T03:07:06;14.60;99.90
15483;DHT22;7843;50.330;7.312;2023-08-06T03:09:32;14.60;99.90
15483;DHT22;7843;50.330;7.312;2023-08-06T03:11:59;14.60;99.90
15483;DHT22;7843;50.330;7.312;2023-08-06T03:14:26;14.60;99.90
15483;DHT22;7843;50.330;7.312;2023-08-06T03:16:52;14.60;99.90
15483;DHT22;7843;50.330;7.312;2023-08-06T03:19:19;14.60;99.90
15483;DHT22;7843;50.330;7.312;2023-08-06T03:21:46;14.60;99.90
15483;DHT22;7843;50.330;7.312;2023-08-06T03:24:13;14.60;99.90
15483;DHT22;7843;50.330;7.312;2023-08-06T03:26:40;14.60;99.90
15483;DHT22;7843;50.330;7.312;2023-08-06T03:29:07;14.60;99.90
15483;DHT22;7843;50.330;7.312;2023-08-06T03:31:33;14.60;99.90
15483;DHT22;7843;50.330;7.312;2023-08-06T03:34:00;14.60;99.90
15483;DHT22;7843;50.330;7.312;2023-08-06T03:36:27;14.60;99.90
15483;DHT22;7843;50.330;7.312;2023-08-06T03:38:54;14.60;99.90
15483;DHT22;7843;50.330;7.312;2023-08-06T03:41:23;14.60;99.90
15483;DHT22;7843;50.330;7.312;2023-08-06T03:43:50;14.60;99.90
15483;DHT22;7843;50.330;7.312;2023-08-06T03:46:17;14.60;99.90
15483;DHT22;7843;50.330;7.312;2023-08-06T03:48:43;14.60;99.90
15483;DHT22;7843;50.330;7.312;2023-08-06T03:51:10;14.60;99.90
15483;DHT22;7843;50.330;7.312;2023-08-06T03:53:37;14.70;99.90
15483;DHT22;7843;50.330;7.312;2023-08-06T03:56:04;14.60;99.90
15483;DHT22;7843;50.330;7.312;2023-08-06T03:58:30;14.60;99.90
15483;DHT22;7843;50.330;7.312;2023-08-06T04:00:59;14.70;99.90
15483;DHT22;7843;50.330;7.312;2023-08-06T04:03:26;14.60;99.90
15483;DHT22;7843;50.330;7.312;2023-08-06T04:05:54;14.60;99.90
15483;DHT22;7843;50.330;7.312;2023-08-06T04:08:21;14.60;99.90
15483;DHT22;7843;50.330;7.312;2023-08-06T04:10:54;14.60;99.90
15483;DHT22;7843;50.330;7.312;2023-08-06T04:13:21;14.60;99.90
15483;DHT22;7843;50.330;7.312;2023-08-06T04:15:48;14.70;99.90
15483;DHT22;7843;50.330;7.312;2023-08-06T04:18:14;14.70;99.90
15483;DHT22;7843;50.330;7.312;2023-08-06T04:20:45;14.70;99.90
15483;DHT22;7843;50.330;7.312;2023-08-06T04:23:13;14.70;99.90
15483;DHT22;7843;50.330;7.312;2023-08-06T04:25:40;14.70;99.90
15483;DHT22;7843;50.330;7.312;2023-08-06T04:28:07;14.70;99.90
15483;DHT22;7843;50.330;7.312;2023-08-06T04:30:34;14.70;99.90
15483;DHT22;7843;50.330;7.312;2023-08-06T04:33:03;14.70;99.90
15483;DHT22;7843;50.330;7.312;2023-08-06T04:35:36;14.70;99.90
15483;DHT22;7843;50.330;7.312;2023-08-06T04:38:02;14.70;99.90
15483;DHT22;7843;50.330;7.312;2023-08-06T04:40:29;14.70;99.90
15483;DHT22;7843;50.330;7.312;2023-08-06T04:42:56;14.70;99.90
15483;DHT22;7843;50.330;7.312;2023-08-06T04:45:22;14.70;99.90
15483;DHT22;7843;50.330;7.312;2023-08-06T04:47:50;14.70;99.90
15483;DHT22;7843;50.330;7.312;2023-08-06T04:50:19;14.70;99.90
15483;DHT22;7843;50.330;7.312;2023-08-06T04:52:46;14.70;99.90
15483;DHT22;7843;50.330;7.312;2023-08-06T04:55:13;14.70;99.90
15483;DHT22;7843;50.330;7.312;2023-08-06T04:57:39;14.70;99.90
15483;DHT22;7843;50.330;7.312;2023-08-06T05:00:06;14.80;99.90
15483;DHT22;7843;50.330;7.312;2023-08-06T05:02:33;14.80;99.90
15483;DHT22;7843;50.330;7.312;2023-08-06T05:05:01;14.80;99.90
15483;DHT22;7843;50.330;7.312;2023-08-06T05:07:27;14.80;99.90
15483;DHT22;7843;50.330;7.312;2023-08-06T05:09:54;14.80;99.90
15483;DHT22;7843;50.330;7.312;2023-08-06T05:12:21;14.80;99.90
15483;DHT22;7843;50.330;7.312;2023-08-06T05:14:47;14.80;99.90
15483;DHT22;7843;50.330;7.312;2023-08-06T05:17:14;14.80;99.90
15483;DHT22;7843;50.330;7.312;2023-08-06T05:19:41;14.90;99.90
15483;DHT22;7843;50.330;7.312;2023-08-06T05:22:08;14.90;99.90
15483;DHT22;7843;50.330;7.312;2023-08-06T05:24:34;14.90;99.90
15483;DHT22;7843;50.330;7.312;2023-08-06T05:27:01;14.90;99.90
15483;DHT22;7843;50.330;7.312;2023-08-06T05:29:28;14.90;99.90
15483;DHT22;7843;50.330;7.312;2023-08-06T05:31:54;14.90;99.90
15483;DHT22;7843;50.330;7.312;2023-08-06T05:34:21;14.90;99.90
15483;DHT22;7843;50.330;7.312;2023-08-06T05:36:48;14.90;99.90
15483;DHT22;7843;50.330;7.312;2023-08-06T05:39:15;14.90;99.90
15483;DHT22;7843;50.330;7.312;2023-08-06T05:41:41;14.90;99.90
15483;DHT22;7843;50.330;7.312;2023-08-06T05:44:08;14.90;99.90
15483;DHT22;7843;50.330;7.312;2023-08-06T05:46:35;14.90;99.90
15483;DHT22;7843;50.330;7.312;2023-08-06T05:49:02;14.90;99.90
15483;DHT22;7843;50.330;7.312;2023-08-06T05:51:29;14.90;99.90
15483;DHT22;7843;50.330;7.312;2023-08-06T05:53:56;14.90;99.90
15483;DHT22;7843;50.330;7.312;2023-08-06T05:56:22;14.90;99.90
15483;DHT22;7843;50.330;7.312;2023-08-06T05:58:49;15.00;99.90
15483;DHT22;7843;50.330;7.312;2023-08-06T06:01:19;15.00;99.90
15483;DHT22;7843;50.330;7.312;2023-08-06T06:03:46;15.00;99.90
15483;DHT22;7843;50.330;7.312;2023-08-06T06:06:12;15.00;99.90
15483;DHT22;7843;50.330;7.312;2023-08-06T06:08:40;15.00;99.90
15483;DHT22;7843;50.330;7.312;2023-08-06T06:11:07;15.10;99.90
15483;DHT22;7843;50.330;7.312;2023-08-06T06:13:34;15.10;99.90
15483;DHT22;7843;50.330;7.312;2023-08-06T06:16:01;15.10;99.90
15483;DHT22;7843;50.330;7.312;2023-08-06T06:18:27;15.10;99.90
15483;DHT22;7843;50.330;7.312;2023-08-06T06:20:54;15.10;99.90
15483;DHT22;7843;50.330;7.312;2023-08-06T06:23:25;15.10;99.90
15483;DHT22;7843;50.330;7.312;2023-08-06T06:25:52;15.10;99.90
15483;DHT22;7843;50.330;7.312;2023-08-06T06:28:19;15.10;99.90
15483;DHT22;7843;50.330;7.312;2023-08-06T06:30:47;15.10;99.90
15483;DHT22;7843;50.330;7.312;2023-08-06T06:33:14;15.10;99.90
15483;DHT22;7843;50.330;7.312;2023-08-06T06:35:41;15.10;99.90
15483;DHT22;7843;50.330;7.312;2023-08-06T06:38:08;15.10;99.90
15483;DHT22;7843;50.330;7.312;2023-08-06T06:40:34;15.10;99.90
15483;DHT22;7843;50.330;7.312;2023-08-06T06:43:01;15.10;99.90
15483;DHT22;7843;50.330;7.312;2023-08-06T06:45:28;15.20;99.90
15483;DHT22;7843;50.330;7.312;2023-08-06T06:47:55;15.20;99.90
15483;DHT22;7843;50.330;7.312;2023-08-06T06:50:22;15.30;99.90
15483;DHT22;7843;50.330;7.312;2023-08-06T06:52:48;15.30;99.90
15483;DHT22;7843;50.330;7.312;2023-08-06T06:55:15;15.40;99.90
15483;DHT22;7843;50.330;7.312;2023-08-06T06:57:42;15.40;99.90
15483;DHT22;7843;50.330;7.312;2023-08-06T07:00:09;15.40;99.90
15483;DHT22;7843;50.330;7.312;2023-08-06T07:02:36;15.40;99.90
15483;DHT22;7843;50.330;7.312;2023-08-06T07:05:02;15.50;99.90
15483;DHT22;7843;50.330;7.312;2023-08-06T07:07:29;15.60;99.90
15483;DHT22;7843;50.330;7.312;2023-08-06T07:09:56;15.60;99.90
15483;DHT22;7843;50.330;7.312;2023-08-06T07:12:22;15.70;99.90
15483;DHT22;7843;50.330;7.312;2023-08-06T07:14:50;15.70;99.90
15483;DHT22;7843;50.330;7.312;2023-08-06T07:17:17;15.80;99.90
15483;DHT22;7843;50.330;7.312;2023-08-06T07:19:44;15.90;99.90
15483;DHT22;7843;50.330;7.312;2023-08-06T07:22:10;16.20;99.90
15483;DHT22;7843;50.330;7.312;2023-08-06T07:24:37;16.30;99.90
15483;DHT22;7843;50.330;7.312;2023-08-06T07:27:04;16.40;99.90
15483;DHT22;7843;50.330;7.312;2023-08-06T07:29:31;16.40;99.90
15483;DHT22;7843;50.330;7.312;2023-08-06T07:31:57;16.40;99.90
15483;DHT22;7843;50.330;7.312;2023-08-06T07:34:24;16.40;99.90
15483;DHT22;7843;50.330;7.312;2023-08-06T07:36:51;16.40;99.90
15483;DHT22;7843;50.330;7.312;2023-08-06T07:39:18;16.40;99.90
15483;DHT22;7843;50.330;7.312;2023-08-06T07:41:45;16.40;99.90
15483;DHT22;7843;50.330;7.312;2023-08-06T07:44:12;16.50;99.90
15483;DHT22;7843;50.330;7.312;2023-08-06T07:46:39;16.50;99.90
15483;DHT22;7843;50.330;7.312;2023-08-06T07:49:05;16.60;99.90
15483;DHT22;7843;50.330;7.312;2023-08-06T07:51:32;16.70;99.90
15483;DHT22;7843;50.330;7.312;2023-08-06T07:53:59;16.70;99.90
15483;DHT22;7843;50.330;7.312;2023-08-06T07:56:25;16.70;99.90
15483;DHT22;7843;50.330;7.312;2023-08-06T07:58:52;16.70;99.90
15483;DHT22;7843;50.330;7.312;2023-08-06T08:01:19;16.70;99.90
15483;DHT22;7843;50.330;7.312;2023-08-06T08:03:46;16.70;99.90
15483;DHT22;7843;50.330;7.312;2023-08-06T08:06:12;16.60;99.90
15483;DHT22;7843;50.330;7.312;2023-08-06T08:08:39;16.70;99.90
15483;DHT22;7843;50.330;7.312;2023-08-06T08:11:06;16.70;99.90
15483;DHT22;7843;50.330;7.312;2023-08-06T08:13:33;16.70;99.90
15483;DHT22;7843;50.330;7.312;2023-08-06T08:16:01;16.80;99.90
15483;DHT22;7843;50.330;7.312;2023-08-06T08:18:28;16.90;99.90
15483;DHT22;7843;50.330;7.312;2023-08-06T08:20:54;17.10;99.90
15483;DHT22;7843;50.330;7.312;2023-08-06T08:23:21;17.10;99.90
15483;DHT22;7843;50.330;7.312;2023-08-06T08:25:48;17.20;99.90
15483;DHT22;7843;50.330;7.312;2023-08-06T08:28:14;17.30;99.90
15483;DHT22;7843;50.330;7.312;2023-08-06T08:30:42;17.60;99.90
15483;DHT22;7843;50.330;7.312;2023-08-06T08:33:09;17.80;99.90
15483;DHT22;7843;50.330;7.312;2023-08-06T08:35:36;17.80;99.90
15483;DHT22;7843;50.330;7.312;2023-08-06T08:38:03;17.80;99.90
15483;DHT22;7843;50.330;7.312;2023-08-06T08:40:32;17.80;99.90
15483;DHT22;7843;50.330;7.312;2023-08-06T08:43:00;17.80;99.90
15483;DHT22;7843;50.330;7.312;2023-08-06T08:45:29;17.80;99.90
15483;DHT22;7843;50.330;7.312;2023-08-06T08:47:56;18.00;99.90
15483;DHT22;7843;50.330;7.312;2023-08-06T08:50:23;18.10;99.90
15483;DHT22;7843;50.330;7.312;2023-08-06T08:52:50;18.20;99.90
15483;DHT22;7843;50.330;7.312;2023-08-06T08:55:17;18.30;99.90
15483;DHT22;7843;50.330;7.312;2023-08-06T08:57:44;18.50;99.90
15483;DHT22;7843;50.330;7.312;2023-08-06T09:00:11;18.50;99.00
15483;DHT22;7843;50.330;7.312;2023-08-06T09:02:38;18.50;96.70
15483;DHT22;7843;50.330;7.312;2023-08-06T09:05:06;18.40;95.90
15483;DHT22;7843;50.330;7.312;2023-08-06T09:07:47;18.40;97.60
15483;DHT22;7843;50.330;7.312;2023-08-06T09:10:16;18.40;98.90
15483;DHT22;7843;50.330;7.312;2023-08-06T09:12:48;18.20;97.60
15483;DHT22;7843;50.330;7.312;2023-08-06T09:15:17;18.20;99.30
15483;DHT22;7843;50.330;7.312;2023-08-06T09:17:44;18.00;97.00
15483;DHT22;7843;50.330;7.312;2023-08-06T09:20:14;17.90;98.70
15483;DHT22;7843;50.330;7.312;2023-08-06T09:22:41;17.80;99.90
15483;DHT22;7843;50.330;7.312;2023-08-06T09:25:08;17.70;97.50
15483;DHT22;7843;50.330;7.312;2023-08-06T09:27:40;17.40;96.30
15483;DHT22;7843;50.330;7.312;2023-08-06T09:30:07;17.30;97.30
15483;DHT22;7843;50.330;7.312;2023-08-06T09:32:47;17.20;97.70
15483;DHT22;7843;50.330;7.312;2023-08-06T09:35:17;17.10;99.30
15483;DHT22;7843;50.330;7.312;2023-08-06T09:37:45;16.90;99.90
15483;DHT22;7843;50.330;7.312;2023-08-06T09:42:54;16.70;99.90
15483;DHT22;7843;50.330;7.312;2023-08-06T09:45:22;16.70;99.90
15483;DHT22;7843;50.330;7.312;2023-08-06T09:47:56;16.60;99.90
15483;DHT22;7843;50.330;7.312;2023-08-06T09:50:23;16.60;99.90
15483;DHT22;7843;50.330;7.312;2023-08-06T09:52:52;16.60;99.90
15483;DHT22;7843;50.330;7.312;2023-08-06T09:55:19;16.60;99.90
15483;DHT22;7843;50.330;7.312;2023-08-06T09:57:47;16.40;99.90
15483;DHT22;7843;50.330;7.312;2023-08-06T10:00:14;16.20;99.90
15483;DHT22;7843;50.330;7.312;2023-08-06T10:02:41;16.10;99.90
15483;DHT22;7843;50.330;7.312;2023-08-06T10:05:08;16.00;99.90
15483;DHT22;7843;50.330;7.312;2023-08-06T10:07:35;15.80;99.90
15483;DHT22;7843;50.330;7.312;2023-08-06T10:10:03;15.80;99.90
15483;DHT22;7843;50.330;7.312;2023-08-06T10:12:34;15.80;99.90
15483;DHT22;7843;50.330;7.312;2023-08-06T10:15:06;15.70;99.90
15483;DHT22;7843;50.330;7.312;2023-08-06T10:17:34;15.70;99.90
15483;DHT22;7843;50.330;7.312;2023-08-06T10:20:08;15.70;99.90
15483;DHT22;7843;50.330;7.312;2023-08-06T10:22:35;15.70;99.90
15483;DHT22;7843;50.330;7.312;2023-08-06T10:25:02;15.90;99.90
15483;DHT22;7843;50.330;7.312;2023-08-06T10:27:39;16.00;99.90
15483;DHT22;7843;50.330;7.312;2023-08-06T10:30:23;16.20;99.90
15483;DHT22;7843;50.330;7.312;2023-08-06T10:32:55;16.20;99.90
15483;DHT22;7843;50.330;7.312;2023-08-06T10:35:32;16.20;99.90
15483;DHT22;7843;50.330;7.312;2023-08-06T10:38:05;16.20;99.90
15483;DHT22;7843;50.330;7.312;2023-08-06T10:40:33;16.20;99.90
15483;DHT22;7843;50.330;7.312;2023-08-06T10:43:04;16.10;99.90
15483;DHT22;7843;50.330;7.312;2023-08-06T10:45:37;16.10;99.90
15483;DHT22;7843;50.330;7.312;2023-08-06T10:48:04;16.00;99.90
15483;DHT22;7843;50.330;7.312;2023-08-06T10:50:32;16.00;99.90
15483;DHT22;7843;50.330;7.312;2023-08-06T10:53:04;16.00;99.90
15483;DHT22;7843;50.330;7.312;2023-08-06T10:55:32;16.00;99.90
15483;DHT22;7843;50.330;7.312;2023-08-06T10:57:59;16.00;99.90
15483;DHT22;7843;50.330;7.312;2023-08-06T11:00:25;16.00;99.90
15483;DHT22;7843;50.330;7.312;2023-08-06T11:02:53;16.00;99.90
15483;DHT22;7843;50.330;7.312;2023-08-06T11:05:20;16.00;99.90
15483;DHT22;7843;50.330;7.312;2023-08-06T11:07:47;16.00;99.90
15483;DHT22;7843;50.330;7.312;2023-08-06T11:10:15;16.00;99.90
15483;DHT22;7843;50.330;7.312;2023-08-06T11:12:42;16.10;99.90
15483;DHT22;7843;50.330;7.312;2023-08-06T11:15:09;16.20;99.90
15483;DHT22;7843;50.330;7.312;2023-08-06T11:17:40;16.20;99.90
15483;DHT22;7843;50.330;7.312;2023-08-06T11:20:07;16.20;99.90
15483;DHT22;7843;50.330;7.312;2023-08-06T11:22:36;16.20;99.90
15483;DHT22;7843;50.330;7.312;2023-08-06T11:25:04;16.20;99.80
15483;DHT22;7843;50.330;7.312;2023-08-06T11:27:31;16.20;99.90
15483;DHT22;7843;50.330;7.312;2023-08-06T11:29:58;16.20;99.70
15483;DHT22;7843;50.330;7.312;2023-08-06T11:32:25;16.10;99.40
15483;DHT22;7843;50.330;7.312;2023-08-06T11:34:53;16.10;99.10
15483;DHT22;7843;50.330;7.312;2023-08-06T11:37:22;16.00;97.20
15483;DHT22;7843;50.330;7.312;2023-08-06T11:39:52;16.00;97.90
15483;DHT22;7843;50.330;7.312;2023-08-06T11:42:19;15.90;97.50
15483;DHT22;7843;50.330;7.312;2023-08-06T11:44:47;15.90;97.90
15483;DHT22;7843;50.330;7.312;2023-08-06T11:47:17;15.90;98.10
15483;DHT22;7843;50.330;7.312;2023-08-06T11:49:46;15.80;98.70
15483;DHT22;7843;50.330;7.312;2023-08-06T11:52:21;15.80;99.00
15483;DHT22;7843;50.330;7.312;2023-08-06T11:57:34;15.70;99.80
15483;DHT22;7843;50.330;7.312;2023-08-06T12:00:06;15.70;98.90
15483;DHT22;7843;50.330;7.312;2023-08-06T12:02:34;15.70;99.20
15483;DHT22;7843;50.330;7.312;2023-08-06T12:05:23;15.80;99.90
15483;DHT22;7843;50.330;7.312;2023-08-06T12:07:55;15.70;99.90
15483;DHT22;7843;50.330;7.312;2023-08-06T12:10:24;15.70;99.90
15483;DHT22;7843;50.330;7.312;2023-08-06T12:12:52;15.60;99.90
15483;DHT22;7843;50.330;7.312;2023-08-06T12:15:19;15.50;99.90
15483;DHT22;7843;50.330;7.312;2023-08-06T12:17:46;15.50;99.90
15483;DHT22;7843;50.330;7.312;2023-08-06T12:20:13;15.40;99.90
15483;DHT22;7843;50.330;7.312;2023-08-06T12:22:40;15.30;99.90
15483;DHT22;7843;50.330;7.312;2023-08-06T12:25:09;15.40;99.90
15483;DHT22;7843;50.330;7.312;2023-08-06T12:27:39;15.40;99.90
15483;DHT22;7843;50.330;7.312;2023-08-06T12:30:06;15.40;99.90
15483;DHT22;7843;50.330;7.312;2023-08-06T12:32:34;15.30;99.90
15483;DHT22;7843;50.330;7.312;2023-08-06T12:35:01;15.30;99.90
15483;DHT22;7843;50.330;7.312;2023-08-06T12:37:28;15.20;99.90
15483;DHT22;7843;50.330;7.312;2023-08-06T12:39:55;15.20;99.90
15483;DHT22;7843;50.330;7.312;2023-08-06T12:42:22;15.20;99.90
15483;DHT22;7843;50.330;7.312;2023-08-06T12:44:49;15.20;99.90
15483;DHT22;7843;50.330;7.312;2023-08-06T12:47:16;15.30;99.90
15483;DHT22;7843;50.330;7.312;2023-08-06T12:49:43;15.30;99.90
15483;DHT22;7843;50.330;7.312;2023-08-06T12:52:10;15.30;99.90
15483;DHT22;7843;50.330;7.312;2023-08-06T12:54:40;15.30;99.90
15483;DHT22;7843;50.330;7.312;2023-08-06T12:57:07;15.30;99.90
15483;DHT22;7843;50.330;7.312;2023-08-06T12:59:33;15.40;99.90
15483;DHT22;7843;50.330;7.312;2023-08-06T13:02:03;15.40;99.90
15483;DHT22;7843;50.330;7.312;2023-08-06T13:04:31;15.40;99.90
15483;DHT22;7843;50.330;7.312;2023-08-06T13:06:58;15.40;99.90
15483;DHT22;7843;50.330;7.312;2023-08-06T13:09:26;15.40;99.90
15483;DHT22;7843;50.330;7.312;2023-08-06T13:11:54;15.40;99.90
15483;DHT22;7843;50.330;7.312;2023-08-06T13:14:21;15.40;99.90
15483;DHT22;7843;50.330;7.312;2023-08-06T13:16:48;15.40;99.90
15483;DHT22;7843;50.330;7.312;2023-08-06T13:19:15;15.50;99.90
15483;DHT22;7843;50.330;7.312;2023-08-06T13:22:01;15.50;99.90
15483;DHT22;7843;50.330;7.312;2023-08-06T13:24:28;15.50;99.90
15483;DHT22;7843;50.330;7.312;2023-08-06T13:26:55;15.40;99.90
15483;DHT22;7843;50.330;7.312;2023-08-06T13:29:22;15.40;99.90
15483;DHT22;7843;50.330;7.312;2023-08-06T13:31:49;15.40;99.90
15483;DHT22;7843;50.330;7.312;2023-08-06T13:34:15;15.30;99.90
15483;DHT22;7843;50.330;7.312;2023-08-06T13:36:43;15.30;99.90
15483;DHT22;7843;50.330;7.312;2023-08-06T13:39:10;15.30;99.90
15483;DHT22;7843;50.330;7.312;2023-08-06T13:41:38;15.40;99.90
15483;DHT22;7843;50.330;7.312;2023-08-06T13:44:05;15.40;99.90
15483;DHT22;7843;50.330;7.312;2023-08-06T13:46:33;15.50;99.90
15483;DHT22;7843;50.330;7.312;2023-08-06T13:48:59;15.50;99.90
15483;DHT22;7843;50.330;7.312;2023-08-06T13:51:26;15.50;99.90
15483;DHT22;7843;50.330;7.312;2023-08-06T13:53:53;15.50;99.90
15483;DHT22;7843;50.330;7.312;2023-08-06T13:56:20;15.50;99.90
15483;DHT22;7843;50.330;7.312;2023-08-06T13:58:47;15.60;99.90
15483;DHT22;7843;50.330;7.312;2023-08-06T14:01:17;15.50;99.90
15483;DHT22;7843;50.330;7.312;2023-08-06T14:03:45;15.50;99.90
15483;DHT22;7843;50.330;7.312;2023-08-06T14:06:12;15.50;99.90
15483;DHT22;7843;50.330;7.312;2023-08-06T14:08:38;15.50;99.90
15483;DHT22;7843;50.330;7.312;2023-08-06T14:11:05;15.40;99.90
15483;DHT22;7843;50.330;7.312;2023-08-06T14:13:33;15.40;99.90
15483;DHT22;7843;50.330;7.312;2023-08-06T14:15:59;15.40;99.90
15483;DHT22;7843;50.330;7.312;2023-08-06T14:18:26;15.50;99.90
15483;DHT22;7843;50.330;7.312;2023-08-06T14:20:54;15.50;99.90
15483;DHT22;7843;50.330;7.312;2023-08-06T14:23:21;15.60;99.90
15483;DHT22;7843;50.330;7.312;2023-08-06T14:25:47;15.60;99.90
15483;DHT22;7843;50.330;7.312;2023-08-06T14:28:14;15.50;99.90
15483;DHT22;7843;50.330;7.312;2023-08-06T14:30:41;15.50;99.90
15483;DHT22;7843;50.330;7.312;2023-08-06T14:33:08;15.50;99.90
15483;DHT22;7843;50.330;7.312;2023-08-06T14:35:42;15.50;99.90
15483;DHT22;7843;50.330;7.312;2023-08-06T14:38:09;15.50;99.90
15483;DHT22;7843;50.330;7.312;2023-08-06T14:40:35;15.40;99.90
15483;DHT22;7843;50.330;7.312;2023-08-06T14:43:05;15.40;99.90
15483;DHT22;7843;50.330;7.312;2023-08-06T14:45:32;15.40;99.90
15483;DHT22;7843;50.330;7.312;2023-08-06T14:48:00;15.40;99.90
15483;DHT22;7843;50.330;7.312;2023-08-06T14:50:27;15.40;99.90
15483;DHT22;7843;50.330;7.312;2023-08-06T14:52:54;15.30;99.90
15483;DHT22;7843;50.330;7.312;2023-08-06T14:55:24;15.30;99.90
15483;DHT22;7843;50.330;7.312;2023-08-06T14:57:52;15.20;99.90
15483;DHT22;7843;50.330;7.312;2023-08-06T15:00:19;15.20;99.90
15483;DHT22;7843;50.330;7.312;2023-08-06T15:02:46;15.10;99.90
15483;DHT22;7843;50.330;7.312;2023-08-06T15:05:13;15.10;99.90
15483;DHT22;7843;50.330;7.312;2023-08-06T15:07:40;15.10;99.90
15483;DHT22;7843;50.330;7.312;2023-08-06T15:10:07;15.10;99.90
15483;DHT22;7843;50.330;7.312;2023-08-06T15:12:45;15.10;99.90
15483;DHT22;7843;50.330;7.312;2023-08-06T15:15:12;15.00;99.90
15483;DHT22;7843;50.330;7.312;2023-08-06T15:17:39;15.00;99.90
15483;DHT22;7843;50.330;7.312;2023-08-06T15:20:06;15.00;99.90
15483;DHT22;7843;50.330;7.312;2023-08-06T15:22:33;15.00;99.90
15483;DHT22;7843;50.330;7.312;2023-08-06T15:25:00;14.90;99.90
15483;DHT22;7843;50.330;7.312;2023-08-06T15:27:27;14.90;99.90
15483;DHT22;7843;50.330;7.312;2023-08-06T15:29:55;15.00;99.90
15483;DHT22;7843;50.330;7.312;2023-08-06T15:32:22;15.00;99.90
15483;DHT22;7843;50.330;7.312;2023-08-06T15:34:50;15.00;99.90
15483;DHT22;7843;50.330;7.312;2023-08-06T15:37:17;15.00;99.90
15483;DHT22;7843;50.330;7.312;2023-08-06T15:39:44;15.00;99.90
15483;DHT22;7843;50.330;7.312;2023-08-06T15:42:11;15.00;99.90
15483;DHT22;7843;50.330;7.312;2023-08-06T15:44:39;15.00;99.90
15483;DHT22;7843;50.330;7.312;2023-08-06T15:47:06;15.00;99.90
15483;DHT22;7843;50.330;7.312;2023-08-06T15:49:32;15.00;99.90
15483;DHT22;7843;50.330;7.312;2023-08-06T15:51:59;15.00;99.90
15483;DHT22;7843;50.330;7.312;2023-08-06T15:54:26;15.00;99.90
15483;DHT22;7843;50.330;7.312;2023-08-06T15:56:52;15.00;99.90
15483;DHT22;7843;50.330;7.312;2023-08-06T15:59:28;15.00;99.90
15483;DHT22;7843;50.330;7.312;2023-08-06T16:01:55;15.00;99.90